Time;durP1;ratioP1;P1;durP2;ratioP2;P2;SDS_P1;SDS_P2;PMS_P1;PMS_P2;Temp;Humidity;BMP_temperature;BMP_pressure;BME280_temperature;BME280_humidity;BME280_pressure;Samples;Min_cycle;Max_cycle;Signal;HPM_P1;HPM_P2
2023/08/01 00:01:32;;;;;;;2.10;1.90;;;;;;;;;;5034932;28;20649;-71
2023/08/01 00:03:58;;;;;;;6.13;2.27;;;;;;;;;;5016038;28;20214;-71
2023/08/01 00:06:24;;;;;;;3.23;2.03;;;;;;;;;;5016454;28;20266;-71
2023/08/01 00:08:51;;;;;;;2.70;2.10;;;;;;;;;;5034058;28;20706;-71
2023/08/01 00:11:17;;;;;;;3.13;2.10;;;;;;;;;;5033797;28;20640;-71
2023/08/01 00:13:43;;;;;;;3.27;2.10;;;;;;;;;;5033812;28;20198;-71
2023/08/01 00:16:09;;;;;;;2.40;1.90;;;;;;;;;;5033886;28;20202;-72
2023/08/01 00:18:35;;;;;;;2.30;2.10;;;;;;;;;;5015983;28;20217;-71
2023/08/01 00:21:02;;;;;;;2.60;2.23;;;;;;;;;;5033598;28;20186;-71
2023/08/01 00:23:28;;;;;;;3.40;2.30;;;;;;;;;;5033475;28;20203;-71
2023/08/01 00:25:54;;;;;;;2.60;2.40;;;;;;;;;;5033468;28;20191;-71
2023/08/01 00:28:20;;;;;;;2.20;2.10;;;;;;;;;;5034310;28;20178;-72
2023/08/01 00:30:46;;;;;;;2.30;2.10;;;;;;;;;;5034122;28;20545;-72
2023/08/01 00:33:13;;;;;;;3.30;2.40;;;;;;;;;;5016651;28;20740;-71
2023/08/01 00:35:38;;;;;;;2.60;2.40;;;;;;;;;;5035647;28;20242;-71
2023/08/01 00:38:04;;;;;;;3.00;2.80;;;;;;;;;;5018317;28;20218;-71
2023/08/01 00:40:34;;;;;;;2.93;2.53;;;;;;;;;;5035942;28;20186;-72
2023/08/01 00:43:00;;;;;;;3.17;2.80;;;;;;;;;;5034193;28;20175;-71
2023/08/01 00:45:30;;;;;;;3.93;2.87;;;;;;;;;;5034800;28;20282;-71
2023/08/01 00:47:57;;;;;;;4.07;2.83;;;;;;;;;;5016847;28;20179;-72
2023/08/01 00:50:23;;;;;;;4.07;3.00;;;;;;;;;;5034334;28;20175;-72
2023/08/01 00:52:50;;;;;;;4.90;3.17;;;;;;;;;;5044823;28;20174;-72
2023/08/01 00:55:17;;;;;;;5.20;2.80;;;;;;;;;;5034277;28;20179;-72
2023/08/01 00:57:43;;;;;;;4.03;3.17;;;;;;;;;;5015556;28;20182;-72
2023/08/01 01:00:09;;;;;;;3.33;3.03;;;;;;;;;;5033155;28;20633;-72
2023/08/01 01:02:35;;;;;;;5.93;3.50;;;;;;;;;;5015370;28;20700;-72
2023/08/01 01:05:02;;;;;;;4.77;3.07;;;;;;;;;;5032804;28;20207;-72
2023/08/01 01:07:28;;;;;;;3.50;3.10;;;;;;;;;;5017293;28;20236;-72
2023/08/01 01:09:54;;;;;;;4.10;3.07;;;;;;;;;;5044513;28;20657;-72
2023/08/01 01:12:20;;;;;;;6.60;2.83;;;;;;;;;;5044758;28;20182;-72
2023/08/01 01:14:46;;;;;;;3.00;2.60;;;;;;;;;;5018263;28;20211;-72
2023/08/01 01:17:12;;;;;;;4.37;3.13;;;;;;;;;;5015566;28;20641;-72
2023/08/01 01:19:38;;;;;;;4.30;3.13;;;;;;;;;;5033074;28;20180;-73
2023/08/01 01:22:05;;;;;;;4.90;4.37;;;;;;;;;;5033061;28;20175;-72
2023/08/01 01:24:32;;;;;;;6.57;4.77;;;;;;;;;;5032679;28;20214;-72
2023/08/01 01:27:01;;;;;;;4.43;4.03;;;;;;;;;;5032878;28;20179;-71
2023/08/01 01:29:27;;;;;;;5.67;4.60;;;;;;;;;;5033264;28;20183;-71
2023/08/01 01:31:54;;;;;;;4.20;3.80;;;;;;;;;;5015100;28;20183;-72
2023/08/01 01:34:20;;;;;;;4.50;3.40;;;;;;;;;;5014839;28;20219;-72
2023/08/01 01:36:46;;;;;;;4.00;3.60;;;;;;;;;;5032803;28;20190;-71
2023/08/01 01:39:12;;;;;;;3.83;3.47;;;;;;;;;;5033079;28;20557;-71
2023/08/01 01:41:38;;;;;;;5.13;3.07;;;;;;;;;;5014969;28;20183;-71
2023/08/01 01:44:04;;;;;;;5.83;3.37;;;;;;;;;;5014747;28;20218;-71
2023/08/01 01:46:30;;;;;;;8.30;3.70;;;;;;;;;;5033928;28;20180;-72
2023/08/01 01:48:57;;;;;;;6.03;3.40;;;;;;;;;;5015004;28;20183;-71
2023/08/01 01:51:23;;;;;;;6.87;4.33;;;;;;;;;;5014948;28;20194;-71
2023/08/01 01:54:07;;;;;;;5.30;4.60;;;;;;;;;;5016519;28;20552;-71
2023/08/01 01:56:35;;;;;;;5.17;4.67;;;;;;;;;;5018328;28;20229;-71
2023/08/01 01:59:01;;;;;;;5.70;5.20;;;;;;;;;;5018563;28;20707;-71
2023/08/01 02:01:27;;;;;;;5.50;5.00;;;;;;;;;;5018302;28;20191;-71
2023/08/01 02:03:53;;;;;;;7.27;6.10;;;;;;;;;;5035929;28;20210;-71
2023/08/01 02:06:18;;;;;;;6.30;5.70;;;;;;;;;;5036102;28;20182;-71
2023/08/01 02:08:45;;;;;;;6.23;5.50;;;;;;;;;;5036027;28;20182;-72
2023/08/01 02:11:11;;;;;;;9.60;6.10;;;;;;;;;;5035803;28;20255;-72
2023/08/01 02:13:37;;;;;;;8.27;6.53;;;;;;;;;;5017988;28;20203;-72
2023/08/01 02:16:03;;;;;;;7.40;6.53;;;;;;;;;;5035883;28;20229;-72
2023/08/01 02:18:29;;;;;;;11.77;7.00;;;;;;;;;;5018064;28;20561;-72
2023/08/01 02:20:55;;;;;;;10.67;6.90;;;;;;;;;;5018077;28;20182;-72
2023/08/01 02:23:21;;;;;;;8.03;6.97;;;;;;;;;;5035568;28;20195;-72
2023/08/01 02:25:47;;;;;;;8.30;7.33;;;;;;;;;;5035806;28;20633;-73
2023/08/01 02:28:13;;;;;;;11.63;8.40;;;;;;;;;;5035619;28;20656;-73
2023/08/01 02:30:39;;;;;;;15.13;9.33;;;;;;;;;;5017956;28;20562;-72
2023/08/01 02:33:05;;;;;;;12.87;9.63;;;;;;;;;;5017747;28;20683;-72
2023/08/01 02:35:31;;;;;;;15.97;11.73;;;;;;;;;;5036123;28;20167;-72
2023/08/01 02:37:56;;;;;;;16.30;12.90;;;;;;;;;;5035959;28;20179;-72
2023/08/01 02:40:22;;;;;;;17.07;13.50;;;;;;;;;;5036949;28;20612;-72
2023/08/01 02:42:48;;;;;;;17.50;15.20;;;;;;;;;;5035487;28;20171;-72
2023/08/01 02:45:14;;;;;;;22.77;16.90;;;;;;;;;;5017813;28;20245;-72
2023/08/01 02:47:40;;;;;;;25.52;19.02;;;;;;;;;;5034354;28;20379;-72
2023/08/01 02:50:07;;;;;;;24.53;19.27;;;;;;;;;;5017728;28;20225;-72
2023/08/01 02:52:32;;;;;;;25.83;18.73;;;;;;;;;;5035652;28;20175;-72
2023/08/01 02:54:58;;;;;;;27.80;19.97;;;;;;;;;;5018929;28;20298;-73
2023/08/01 02:57:25;;;;;;;31.57;21.30;;;;;;;;;;5017856;28;20191;-73
2023/08/01 02:59:50;;;;;;;29.40;21.10;;;;;;;;;;5017542;28;20233;-72
2023/08/01 03:02:17;;;;;;;27.03;20.77;;;;;;;;;;5017133;28;20187;-72
2023/08/01 03:04:43;;;;;;;26.17;21.47;;;;;;;;;;5016856;28;20287;-72
2023/08/01 03:07:09;;;;;;;28.17;20.83;;;;;;;;;;5017126;28;20215;-72
2023/08/01 03:09:35;;;;;;;29.07;21.70;;;;;;;;;;5017114;28;20179;-73
2023/08/01 03:12:01;;;;;;;27.17;20.17;;;;;;;;;;5016921;28;20190;-73
2023/08/01 03:14:27;;;;;;;32.07;21.00;;;;;;;;;;5034491;28;20253;-73
2023/08/01 03:16:53;;;;;;;33.43;22.07;;;;;;;;;;5016761;28;20190;-72
2023/08/01 03:19:19;;;;;;;30.90;20.43;;;;;;;;;;5034612;28;20186;-73
2023/08/01 03:21:45;;;;;;;33.20;21.97;;;;;;;;;;5016961;28;20183;-72
2023/08/01 03:24:11;;;;;;;29.60;21.27;;;;;;;;;;5034899;28;20290;-72
2023/08/01 03:26:37;;;;;;;30.43;21.57;;;;;;;;;;5016793;28;20179;-73
2023/08/01 03:29:05;;;;;;;31.03;18.47;;;;;;;;;;5034524;28;20199;-72
2023/08/01 03:31:31;;;;;;;30.77;20.50;;;;;;;;;;5016869;28;20201;-72
2023/08/01 03:33:58;;;;;;;28.50;20.47;;;;;;;;;;5018203;28;20688;-72
2023/08/01 03:36:24;;;;;;;28.23;20.40;;;;;;;;;;5034502;28;20179;-72
2023/08/01 03:38:50;;;;;;;30.17;21.03;;;;;;;;;;5034662;28;20175;-72
2023/08/01 03:41:16;;;;;;;29.40;19.97;;;;;;;;;;5016600;28;20208;-72
2023/08/01 03:43:42;;;;;;;28.57;21.33;;;;;;;;;;5016328;28;20214;-72
2023/08/01 03:46:08;;;;;;;41.43;21.10;;;;;;;;;;5016630;28;20228;-71
2023/08/01 03:48:34;;;;;;;30.77;20.80;;;;;;;;;;5019570;28;20183;-72
2023/08/01 03:51:00;;;;;;;30.40;21.47;;;;;;;;;;5029945;28;20184;-72
2023/08/01 03:53:26;;;;;;;32.63;21.17;;;;;;;;;;5048064;28;20194;-71
2023/08/01 03:55:52;;;;;;;25.17;20.23;;;;;;;;;;5021512;28;20221;-71
2023/08/01 03:58:18;;;;;;;33.77;21.93;;;;;;;;;;5017673;28;20183;-71
2023/08/01 04:00:44;;;;;;;28.23;21.87;;;;;;;;;;5034840;28;20175;-72
2023/08/01 04:03:10;;;;;;;29.67;21.13;;;;;;;;;;5035107;28;20223;-72
2023/08/01 04:05:36;;;;;;;36.63;22.53;;;;;;;;;;5016596;28;20206;-72
2023/08/01 04:08:02;;;;;;;37.63;22.53;;;;;;;;;;5016732;28;20177;-71
2023/08/01 04:10:28;;;;;;;36.50;22.10;;;;;;;;;;5034186;28;20179;-71
2023/08/01 04:12:54;;;;;;;30.87;22.43;;;;;;;;;;5033995;28;20186;-71
2023/08/01 04:15:20;;;;;;;32.33;24.53;;;;;;;;;;5034264;28;20526;-71
2023/08/01 04:17:46;;;;;;;38.90;25.17;;;;;;;;;;5015361;28;20193;-71
2023/08/01 04:20:12;;;;;;;36.47;25.40;;;;;;;;;;5072353;22;20226;-66
2023/08/01 04:22:38;;;;;;;35.80;26.50;;;;;;;;;;5036413;28;20185;-66
2023/08/01 04:25:04;;;;;;;40.60;29.03;;;;;;;;;;5053422;28;20212;-66
2023/08/01 04:27:30;;;;;;;46.43;31.40;;;;;;;;;;5053489;28;20655;-65
2023/08/01 04:29:56;;;;;;;39.77;27.70;;;;;;;;;;5053325;28;20195;-65
2023/08/01 04:32:22;;;;;;;33.97;28.83;;;;;;;;;;5053437;28;20174;-66
2023/08/01 04:34:48;;;;;;;40.07;27.17;;;;;;;;;;5053867;28;20659;-66
2023/08/01 04:37:14;;;;;;;33.20;26.17;;;;;;;;;;5035455;28;20221;-66
2023/08/01 04:39:40;;;;;;;33.00;24.90;;;;;;;;;;5053349;28;20206;-65
2023/08/01 04:42:06;;;;;;;32.33;22.83;;;;;;;;;;5053397;28;20175;-65
2023/08/01 04:44:32;;;;;;;31.87;24.17;;;;;;;;;;5053073;28;20202;-65
2023/08/01 04:46:58;;;;;;;38.17;24.27;;;;;;;;;;5053427;28;20260;-67
2023/08/01 04:49:24;;;;;;;40.90;24.47;;;;;;;;;;5053257;28;20250;-65
2023/08/01 04:51:50;;;;;;;31.17;23.97;;;;;;;;;;5053182;28;20182;-66
2023/08/01 04:54:16;;;;;;;33.70;25.03;;;;;;;;;;5054282;28;20179;-65
2023/08/01 04:56:42;;;;;;;36.27;24.00;;;;;;;;;;5053441;28;20218;-66
2023/08/01 04:59:08;;;;;;;31.27;24.07;;;;;;;;;;5053062;28;20295;-66
2023/08/01 05:01:34;;;;;;;40.67;25.20;;;;;;;;;;5053083;28;20182;-65
2023/08/01 05:04:00;;;;;;;40.03;24.33;;;;;;;;;;5034968;28;20198;-65
2023/08/01 05:06:27;;;;;;;36.27;24.70;;;;;;;;;;5035221;28;20269;-65
2023/08/01 05:08:53;;;;;;;38.77;26.23;;;;;;;;;;5053040;28;20191;-65
2023/08/01 05:11:19;;;;;;;35.50;25.07;;;;;;;;;;5035159;28;20184;-65
2023/08/01 05:13:45;;;;;;;34.20;23.73;;;;;;;;;;5035057;28;20182;-66
2023/08/01 05:16:11;;;;;;;38.50;25.70;;;;;;;;;;5035336;28;20243;-65
2023/08/01 05:18:37;;;;;;;39.37;26.80;;;;;;;;;;5034988;28;20241;-65
2023/08/01 05:21:03;;;;;;;42.63;27.27;;;;;;;;;;5053110;28;20178;-65
2023/08/01 05:23:29;;;;;;;40.90;26.53;;;;;;;;;;5053103;28;20186;-65
2023/08/01 05:25:55;;;;;;;35.67;24.83;;;;;;;;;;5052911;28;20179;-65
2023/08/01 05:28:21;;;;;;;37.10;27.00;;;;;;;;;;5035794;28;20178;-65
2023/08/01 05:30:47;;;;;;;39.83;27.70;;;;;;;;;;5057534;28;20643;-65
2023/08/01 05:33:13;;;;;;;36.20;27.03;;;;;;;;;;5057340;28;20182;-65
2023/08/01 05:35:39;;;;;;;35.97;26.63;;;;;;;;;;5057050;28;20182;-65
2023/08/01 05:38:06;;;;;;;41.73;26.93;;;;;;;;;;5056852;28;20261;-65
2023/08/01 05:40:31;;;;;;;36.43;26.93;;;;;;;;;;5056821;28;20606;-65
2023/08/01 05:42:58;;;;;;;39.27;25.60;;;;;;;;;;5057113;28;20219;-65
2023/08/01 05:45:24;;;;;;;39.10;24.60;;;;;;;;;;5038757;28;20202;-65
2023/08/01 05:47:49;;;;;;;35.07;25.90;;;;;;;;;;5038677;28;20210;-65
2023/08/01 05:50:15;;;;;;;33.73;24.33;;;;;;;;;;5038784;28;20205;-65
2023/08/01 05:52:41;;;;;;;35.33;24.97;;;;;;;;;;5057060;28;20181;-65
2023/08/01 05:55:08;;;;;;;38.20;25.70;;;;;;;;;;5038629;28;20644;-65
2023/08/01 05:57:34;;;;;;;29.03;22.60;;;;;;;;;;5038662;28;20201;-65
2023/08/01 06:00:00;;;;;;;34.80;24.07;;;;;;;;;;5056852;28;20672;-66
2023/08/01 06:02:26;;;;;;;31.37;22.53;;;;;;;;;;5056979;28;20178;-66
2023/08/01 06:04:52;;;;;;;33.10;23.60;;;;;;;;;;5056639;28;20673;-66
2023/08/01 06:07:22;;;;;;;29.47;22.40;;;;;;;;;;5056262;28;20593;-65
2023/08/01 06:09:49;;;;;;;25.83;21.33;;;;;;;;;;5038173;28;20201;-65
2023/08/01 06:12:15;;;;;;;32.03;21.40;;;;;;;;;;5038301;28;20178;-66
2023/08/01 06:14:41;;;;;;;30.63;20.37;;;;;;;;;;5038306;28;20539;-65
2023/08/01 06:17:06;;;;;;;29.80;20.17;;;;;;;;;;5056093;28;20283;-65
2023/08/01 06:19:32;;;;;;;27.90;20.77;;;;;;;;;;5055977;28;20210;-66
2023/08/01 06:22:00;;;;;;;27.90;20.70;;;;;;;;;;5038083;28;20209;-66
2023/08/01 06:24:26;;;;;;;28.63;20.43;;;;;;;;;;5056179;28;20198;-65
2023/08/01 06:26:52;;;;;;;31.80;19.80;;;;;;;;;;5038029;28;20293;-65
2023/08/01 06:29:17;;;;;;;26.97;20.07;;;;;;;;;;5038318;28;20198;-65
2023/08/01 06:31:43;;;;;;;29.17;19.83;;;;;;;;;;5038368;28;20178;-65
2023/08/01 06:34:09;;;;;;;25.43;20.63;;;;;;;;;;5056618;28;20217;-65
2023/08/01 06:36:35;;;;;;;28.60;20.00;;;;;;;;;;5058172;28;20186;-65
2023/08/01 06:39:02;;;;;;;20.57;18.27;;;;;;;;;;5057339;28;20278;-65
2023/08/01 06:41:27;;;;;;;23.30;18.97;;;;;;;;;;5058325;28;20189;-65
2023/08/01 06:43:53;;;;;;;22.33;16.47;;;;;;;;;;5040910;28;20203;-65
2023/08/01 06:46:19;;;;;;;22.93;17.33;;;;;;;;;;5039890;28;20174;-66
2023/08/01 06:48:45;;;;;;;26.73;15.90;;;;;;;;;;5059096;28;20766;-65
2023/08/01 06:51:11;;;;;;;20.47;13.97;;;;;;;;;;5059135;28;20197;-65
2023/08/01 06:53:37;;;;;;;19.83;14.40;;;;;;;;;;5059323;28;20175;-65
2023/08/01 06:56:03;;;;;;;20.00;13.53;;;;;;;;;;5060441;28;20178;-65
2023/08/01 06:58:29;;;;;;;18.63;13.80;;;;;;;;;;5058711;28;20175;-65
2023/08/01 07:00:55;;;;;;;18.73;13.07;;;;;;;;;;5058825;28;20179;-65
2023/08/01 07:03:21;;;;;;;16.47;12.33;;;;;;;;;;5063569;28;20198;-65
2023/08/01 07:05:47;;;;;;;20.37;13.27;;;;;;;;;;5067031;28;20214;-64
2023/08/01 07:08:13;;;;;;;22.07;13.50;;;;;;;;;;5060487;28;20175;-65
2023/08/01 07:10:39;;;;;;;18.63;12.40;;;;;;;;;;5059485;28;20199;-65
2023/08/01 07:13:05;;;;;;;18.77;12.13;;;;;;;;;;5057747;28;20258;-64
2023/08/01 07:15:31;;;;;;;16.73;11.67;;;;;;;;;;5054954;28;20189;-65
2023/08/01 07:17:57;;;;;;;19.93;12.07;;;;;;;;;;5055625;28;20186;-65
2023/08/01 07:20:23;;;;;;;16.80;11.67;;;;;;;;;;5054927;28;20594;-65
2023/08/01 07:22:49;;;;;;;15.33;11.20;;;;;;;;;;5036950;28;20636;-65
2023/08/01 07:25:15;;;;;;;19.13;12.60;;;;;;;;;;5054834;28;20202;-65
2023/08/01 07:27:42;;;;;;;18.73;11.80;;;;;;;;;;5054961;28;20178;-65
2023/08/01 07:30:09;;;;;;;18.53;10.97;;;;;;;;;;5054569;28;20194;-65
2023/08/01 07:32:37;;;;;;;18.10;11.93;;;;;;;;;;5054819;28;20336;-65
2023/08/01 07:35:03;;;;;;;19.03;11.50;;;;;;;;;;5036822;28;20210;-65
2023/08/01 07:37:29;;;;;;;18.20;11.70;;;;;;;;;;5055261;28;20179;-65
2023/08/01 07:39:56;;;;;;;17.03;11.50;;;;;;;;;;5054881;28;20577;-65
2023/08/01 07:42:23;;;;;;;16.70;10.20;;;;;;;;;;5036896;28;20189;-65
2023/08/01 07:44:49;;;;;;;17.87;11.07;;;;;;;;;;5054594;28;20289;-65
2023/08/01 07:47:16;;;;;;;17.93;11.60;;;;;;;;;;5054820;28;20297;-65
2023/08/01 07:49:42;;;;;;;18.80;11.50;;;;;;;;;;5054616;28;20234;-65
2023/08/01 07:52:08;;;;;;;15.20;11.67;;;;;;;;;;5053530;28;20204;-65
2023/08/01 07:54:34;;;;;;;17.53;11.00;;;;;;;;;;5054704;28;20568;-65
2023/08/01 07:56:59;;;;;;;17.30;10.63;;;;;;;;;;5036927;28;20198;-65
2023/08/01 07:59:25;;;;;;;18.67;10.40;;;;;;;;;;5054542;28;20198;-65
2023/08/01 08:01:52;;;;;;;19.27;10.50;;;;;;;;;;5054390;28;20178;-65
2023/08/01 08:04:18;;;;;;;13.60;10.43;;;;;;;;;;5054103;28;20202;-65
2023/08/01 08:06:44;;;;;;;14.80;10.30;;;;;;;;;;5036333;28;20177;-65
2023/08/01 08:09:10;;;;;;;14.37;9.63;;;;;;;;;;5054469;28;20207;-65
2023/08/01 08:11:36;;;;;;;19.73;11.20;;;;;;;;;;5054267;28;20641;-65
2023/08/01 08:14:02;;;;;;;13.93;10.13;;;;;;;;;;5054496;28;20179;-65
2023/08/01 08:16:28;;;;;;;11.63;8.77;;;;;;;;;;5054250;28;20186;-65
2023/08/01 08:18:54;;;;;;;16.27;10.53;;;;;;;;;;5053574;28;20220;-65
2023/08/01 08:21:20;;;;;;;16.27;10.67;;;;;;;;;;5053824;28;20213;-65
2023/08/01 08:23:46;;;;;;;15.30;10.17;;;;;;;;;;5053640;28;20205;-65
2023/08/01 08:26:12;;;;;;;20.20;10.40;;;;;;;;;;5053754;28;20174;-65
2023/08/01 08:28:39;;;;;;;11.57;9.10;;;;;;;;;;5035973;28;20198;-65
2023/08/01 08:31:05;;;;;;;22.97;9.50;;;;;;;;;;5054702;28;20257;-65
2023/08/01 08:33:31;;;;;;;15.97;9.10;;;;;;;;;;5036063;28;20232;-65
2023/08/01 08:35:57;;;;;;;13.40;8.43;;;;;;;;;;5053677;28;20174;-65
2023/08/01 08:38:23;;;;;;;19.40;9.17;;;;;;;;;;5053955;28;20589;-65
2023/08/01 08:41:07;;;;;;;15.53;8.67;;;;;;;;;;5053670;28;20266;-65
2023/08/01 08:43:33;;;;;;;13.03;9.27;;;;;;;;;;5053928;28;20162;-65
2023/08/01 08:46:00;;;;;;;13.40;8.93;;;;;;;;;;5054317;28;20236;-65
2023/08/01 08:48:27;;;;;;;15.07;9.20;;;;;;;;;;5053434;28;20178;-65
2023/08/01 08:50:53;;;;;;;13.33;8.63;;;;;;;;;;5053520;28;20636;-65
2023/08/01 08:53:19;;;;;;;18.40;9.07;;;;;;;;;;5035421;28;20186;-65
2023/08/01 08:55:45;;;;;;;11.33;8.80;;;;;;;;;;5035531;28;20715;-65
2023/08/01 08:58:11;;;;;;;10.40;7.53;;;;;;;;;;5053269;28;20217;-66
2023/08/01 09:00:37;;;;;;;15.17;7.33;;;;;;;;;;5035254;28;20297;-65
2023/08/01 09:03:07;;;;;;;12.43;7.80;;;;;;;;;;5055039;28;20547;-65
2023/08/01 09:05:40;;;;;;;16.33;7.73;;;;;;;;;;5057505;28;20592;-65
2023/08/01 09:08:09;;;;;;;8.57;6.80;;;;;;;;;;5057553;28;20163;-65
2023/08/01 09:10:35;;;;;;;13.13;6.77;;;;;;;;;;5057125;28;20679;-65
2023/08/01 09:13:01;;;;;;;11.93;6.23;;;;;;;;;;5057451;28;20183;-66
2023/08/01 09:15:28;;;;;;;10.00;6.03;;;;;;;;;;5057457;28;20178;-65
2023/08/01 09:18:00;;;;;;;10.70;5.90;;;;;;;;;;5040011;28;20178;-65
2023/08/01 09:20:26;;;;;;;8.10;5.60;;;;;;;;;;5057469;28;20220;-65
2023/08/01 09:22:52;;;;;;;9.43;5.00;;;;;;;;;;5057101;28;20615;-67
2023/08/01 09:25:18;;;;;;;9.60;5.60;;;;;;;;;;5057425;28;20686;-65
2023/08/01 09:27:44;;;;;;;7.60;5.20;;;;;;;;;;5057313;28;20178;-66
2023/08/01 09:30:13;;;;;;;8.43;5.53;;;;;;;;;;5057173;28;20214;-66
2023/08/01 09:32:39;;;;;;;8.77;4.97;;;;;;;;;;5057898;28;20174;-65
2023/08/01 09:35:06;;;;;;;9.00;4.80;;;;;;;;;;5058754;28;20181;-65
2023/08/01 09:37:42;;;;;;;8.40;4.97;;;;;;;;;;5040356;28;20189;-67
2023/08/01 09:40:08;;;;;;;8.20;4.43;;;;;;;;;;5057333;28;20194;-66
2023/08/01 09:42:38;;;;;;;5.53;4.63;;;;;;;;;;5057558;28;20182;-66
2023/08/01 09:45:06;;;;;;;10.00;4.93;;;;;;;;;;5040638;28;20206;-65
2023/08/01 09:47:38;;;;;;;9.43;5.17;;;;;;;;;;5039445;28;20556;-66
2023/08/01 09:50:05;;;;;;;8.33;4.73;;;;;;;;;;5057077;28;20205;-66
2023/08/01 09:52:31;;;;;;;9.70;4.20;;;;;;;;;;5056939;28;20174;-66
2023/08/01 09:54:57;;;;;;;6.60;4.27;;;;;;;;;;5039291;28;20663;-67
2023/08/01 09:57:23;;;;;;;6.57;4.20;;;;;;;;;;5056812;28;20178;-66
2023/08/01 09:59:49;;;;;;;7.37;4.27;;;;;;;;;;5038444;28;20237;-66
2023/08/01 10:02:16;;;;;;;7.00;4.67;;;;;;;;;;5038485;28;20222;-66
2023/08/01 10:04:43;;;;;;;7.30;4.43;;;;;;;;;;5056162;28;20206;-66
2023/08/01 10:07:11;;;;;;;7.43;4.67;;;;;;;;;;5056100;28;20213;-66
2023/08/01 10:09:38;;;;;;;9.20;4.70;;;;;;;;;;5038412;28;20256;-66
2023/08/01 10:12:05;;;;;;;6.03;4.60;;;;;;;;;;5056371;28;20205;-66
2023/08/01 10:14:36;;;;;;;8.30;4.73;;;;;;;;;;5037570;28;20227;-66
2023/08/01 10:17:03;;;;;;;7.17;4.57;;;;;;;;;;5038169;28;20569;-66
2023/08/01 10:19:31;;;;;;;8.53;4.13;;;;;;;;;;5056089;28;20595;-66
2023/08/01 10:21:57;;;;;;;6.27;4.60;;;;;;;;;;5038474;28;20193;-66
2023/08/01 10:24:25;;;;;;;8.23;4.53;;;;;;;;;;5056059;28;20206;-66
2023/08/01 10:26:51;;;;;;;13.23;4.70;;;;;;;;;;5037956;28;20170;-66
2023/08/01 10:29:17;;;;;;;6.17;4.13;;;;;;;;;;5055660;28;20221;-66
2023/08/01 10:31:52;;;;;;;10.67;4.77;;;;;;;;;;5055715;28;20240;-66
2023/08/01 10:34:21;;;;;;;7.80;4.07;;;;;;;;;;5037850;28;20243;-66
2023/08/01 10:36:54;;;;;;;6.63;4.20;;;;;;;;;;5037658;28;20194;-65
2023/08/01 10:42:02;;;;;;;7.43;4.60;;;;;;;;;;5035350;28;20610;-69
2023/08/01 10:44:30;;;;;;;6.10;5.03;;;;;;;;;;5035984;28;20195;-70
2023/08/01 10:46:57;;;;;;;7.60;4.93;;;;;;;;;;5035558;28;20175;-70
2023/08/01 10:49:37;;;;;;;7.90;5.30;;;;;;;;;;5017445;28;20233;-69
2023/08/01 10:52:03;;;;;;;13.20;7.33;;;;;;;;;;5017232;28;20365;-72
2023/08/01 10:54:29;;;;;;;10.17;6.77;;;;;;;;;;5017234;28;20180;-71
2023/08/01 10:56:58;;;;;;;14.77;9.82;;;;;;;;;;5033876;28;20917;-71
2023/08/01 10:59:24;;;;;;;13.80;8.43;;;;;;;;;;5017253;28;20202;-71
2023/08/01 11:01:54;;;;;;;8.00;6.40;;;;;;;;;;5017550;28;20711;-71
2023/08/01 11:04:21;;;;;;;8.43;4.80;;;;;;;;;;5016209;28;20453;-71
2023/08/01 11:06:48;;;;;;;7.97;4.45;;;;;;;;;;5033929;28;20379;-71
2023/08/01 11:09:25;;;;;;;5.97;3.53;;;;;;;;;;5035136;28;20198;-71
2023/08/01 11:11:52;;;;;;;6.57;3.83;;;;;;;;;;5034782;28;20254;-71
2023/08/01 11:14:22;;;;;;;10.03;3.83;;;;;;;;;;5034892;28;20183;-72
2023/08/01 11:16:49;;;;;;;7.32;4.22;;;;;;;;;;5016075;28;20414;-71
2023/08/01 11:19:19;;;;;;;8.02;4.45;;;;;;;;;;5033830;28;20893;-72
2023/08/01 11:21:45;;;;;;;6.63;4.47;;;;;;;;;;5033559;28;20390;-71
2023/08/01 11:24:11;;;;;;;7.47;4.50;;;;;;;;;;5033700;28;20458;-71
2023/08/01 11:26:40;;;;;;;9.77;4.60;;;;;;;;;;5015677;28;20761;-72
2023/08/01 11:29:06;;;;;;;10.43;4.30;;;;;;;;;;5033431;28;20834;-72
2023/08/01 11:31:32;;;;;;;6.20;3.58;;;;;;;;;;5033483;28;20375;-72
2023/08/01 11:33:58;;;;;;;5.55;2.95;;;;;;;;;;5016894;28;20440;-72
2023/08/01 11:36:28;;;;;;;5.90;3.00;;;;;;;;;;5033184;28;20765;-72
2023/08/01 11:38:54;;;;;;;5.50;3.03;;;;;;;;;;5033309;28;20395;-72
2023/08/01 11:41:20;;;;;;;9.07;3.00;;;;;;;;;;5015326;28;20397;-72
2023/08/01 11:43:46;;;;;;;6.13;3.40;;;;;;;;;;5033529;28;20807;-71
2023/08/01 11:46:13;;;;;;;5.95;3.30;;;;;;;;;;5032975;28;20382;-71
2023/08/01 11:48:39;;;;;;;5.03;2.90;;;;;;;;;;5015326;28;20394;-71
2023/08/01 11:51:05;;;;;;;7.63;3.58;;;;;;;;;;5018090;28;20379;-71
2023/08/01 11:53:37;;;;;;;5.85;3.45;;;;;;;;;;5024992;28;20422;-71
2023/08/01 11:56:04;;;;;;;7.93;3.80;;;;;;;;;;5041148;28;20159;-70
2023/08/01 11:58:34;;;;;;;6.72;4.30;;;;;;;;;;5034410;28;20429;-71
2023/08/01 12:01:04;;;;;;;8.35;4.40;;;;;;;;;;5015891;28;20395;-71
2023/08/01 12:03:30;;;;;;;7.30;4.23;;;;;;;;;;5033381;28;20383;-72
2023/08/01 12:06:03;;;;;;;7.70;3.93;;;;;;;;;;5034143;28;20206;-71
2023/08/01 12:08:34;;;;;;;8.83;4.37;;;;;;;;;;5034170;28;20167;-71
2023/08/01 12:11:00;;;;;;;9.07;4.60;;;;;;;;;;5032752;28;20433;-71
2023/08/01 12:13:27;;;;;;;9.17;4.37;;;;;;;;;;5014631;28;20387;-71
2023/08/01 12:15:55;;;;;;;7.93;4.53;;;;;;;;;;5032407;28;20375;-71
2023/08/01 12:18:22;;;;;;;11.68;5.28;;;;;;;;;;5032445;28;20438;-71
2023/08/01 12:20:48;;;;;;;8.07;5.00;;;;;;;;;;5015779;28;20676;-71
2023/08/01 12:23:14;;;;;;;10.65;5.38;;;;;;;;;;5014489;28;20383;-71
2023/08/01 12:25:40;;;;;;;9.07;5.00;;;;;;;;;;5014375;28;20411;-71
2023/08/01 12:28:06;;;;;;;8.65;4.63;;;;;;;;;;5014921;28;20745;-71
2023/08/01 12:30:32;;;;;;;11.55;4.93;;;;;;;;;;5014328;28;20742;-70
2023/08/01 12:32:58;;;;;;;9.90;4.57;;;;;;;;;;5032270;28;20722;-71
2023/08/01 12:35:24;;;;;;;8.93;4.20;;;;;;;;;;5014223;28;20405;-71
2023/08/01 12:37:51;;;;;;;6.10;3.27;;;;;;;;;;5032668;28;20224;-70
2023/08/01 12:40:17;;;;;;;5.37;3.27;;;;;;;;;;5033265;28;20210;-69
2023/08/01 12:42:43;;;;;;;4.80;2.63;;;;;;;;;;5015363;28;20189;-69
2023/08/01 12:45:10;;;;;;;7.37;2.80;;;;;;;;;;5015342;28;20234;-68
2023/08/01 12:47:35;;;;;;;4.90;2.97;;;;;;;;;;5033161;28;20530;-69
2023/08/01 12:50:01;;;;;;;8.53;3.40;;;;;;;;;;5032803;28;20699;-69
2023/08/01 12:52:27;;;;;;;5.87;3.07;;;;;;;;;;5033084;28;20175;-68
2023/08/01 12:54:53;;;;;;;6.37;3.03;;;;;;;;;;5033135;28;20190;-70
2023/08/01 12:57:19;;;;;;;7.17;3.47;;;;;;;;;;5015246;28;20632;-69
2023/08/01 12:59:45;;;;;;;5.13;3.30;;;;;;;;;;5033067;28;20245;-70
2023/08/01 13:02:11;;;;;;;6.13;3.33;;;;;;;;;;5033280;28;20183;-70
2023/08/01 13:04:38;;;;;;;8.33;3.57;;;;;;;;;;5033218;28;20265;-69
2023/08/01 13:07:04;;;;;;;6.43;3.03;;;;;;;;;;5015293;28;20621;-69
2023/08/01 13:09:29;;;;;;;6.37;3.00;;;;;;;;;;5033113;28;20542;-70
2023/08/01 13:11:56;;;;;;;5.70;3.20;;;;;;;;;;5033437;28;20175;-69
2023/08/01 13:14:22;;;;;;;6.17;3.23;;;;;;;;;;5033643;28;20179;-69
2023/08/01 13:16:48;;;;;;;5.83;3.60;;;;;;;;;;5033126;28;20175;-69
2023/08/01 13:19:14;;;;;;;6.67;3.20;;;;;;;;;;5032973;28;20182;-70
2023/08/01 13:21:40;;;;;;;7.73;3.67;;;;;;;;;;5036542;28;20210;-69
2023/08/01 13:24:06;;;;;;;6.60;3.67;;;;;;;;;;5015551;28;20213;-70
2023/08/01 13:26:32;;;;;;;5.90;3.10;;;;;;;;;;5032930;28;20195;-70
2023/08/01 13:28:58;;;;;;;9.33;3.40;;;;;;;;;;5015319;28;20653;-70
2023/08/01 13:31:24;;;;;;;8.80;3.90;;;;;;;;;;5015378;28;20571;-70
2023/08/01 13:33:50;;;;;;;8.97;3.80;;;;;;;;;;5032854;28;20179;-70
2023/08/01 13:36:18;;;;;;;10.13;3.67;;;;;;;;;;5032921;28;20262;-70
2023/08/01 13:38:44;;;;;;;7.17;3.33;;;;;;;;;;5015292;28;20184;-70
2023/08/01 13:41:10;;;;;;;8.10;3.33;;;;;;;;;;5014980;28;20640;-69
2023/08/01 13:43:36;;;;;;;10.33;3.03;;;;;;;;;;5032777;28;20546;-69
2023/08/01 13:46:08;;;;;;;10.17;3.57;;;;;;;;;;5014994;28;20222;-69
2023/08/01 13:48:34;;;;;;;7.53;3.53;;;;;;;;;;5032946;28;20565;-69
2023/08/01 13:51:00;;;;;;;5.23;2.43;;;;;;;;;;5017977;28;20199;-69
2023/08/01 13:53:26;;;;;;;5.43;2.70;;;;;;;;;;5018475;28;20210;-69
2023/08/01 13:55:52;;;;;;;4.47;2.53;;;;;;;;;;5036200;28;20544;-69
2023/08/01 13:58:18;;;;;;;7.07;3.13;;;;;;;;;;5036398;28;20265;-70
2023/08/01 14:00:43;;;;;;;10.67;3.00;;;;;;;;;;5036207;28;20206;-69
2023/08/01 14:03:09;;;;;;;5.60;2.87;;;;;;;;;;5035990;28;20180;-69
2023/08/01 14:05:35;;;;;;;6.87;2.90;;;;;;;;;;5018205;28;20214;-69
2023/08/01 14:08:02;;;;;;;7.93;2.83;;;;;;;;;;5035836;28;20176;-69
2023/08/01 14:10:28;;;;;;;5.70;2.80;;;;;;;;;;5018125;28;20763;-69
2023/08/01 14:12:53;;;;;;;8.33;2.83;;;;;;;;;;5018128;28;20210;-69
2023/08/01 14:15:19;;;;;;;6.37;2.80;;;;;;;;;;5018072;28;20181;-69
2023/08/01 14:17:45;;;;;;;5.67;2.90;;;;;;;;;;5021697;28;20183;-69
2023/08/01 14:20:12;;;;;;;6.83;2.90;;;;;;;;;;5018300;28;20199;-69
2023/08/01 14:22:37;;;;;;;6.33;2.60;;;;;;;;;;5018106;28;20245;-69
2023/08/01 14:25:04;;;;;;;5.23;2.70;;;;;;;;;;5018378;28;20688;-69
2023/08/01 14:27:30;;;;;;;4.27;2.73;;;;;;;;;;5019120;28;20206;-69
2023/08/01 14:29:56;;;;;;;7.17;3.10;;;;;;;;;;5036589;28;20665;-69